sensor_id;sensor_type;location;lat;lon;timestamp;pressure;altitude;pressure_sealevel;temperature;humidity
74466;BME280;62916;50.044;15.938;2023-05-14T00:01:07;99473.59;;;21.97;46.83
74466;BME280;62916;50.044;15.938;2023-05-14T00:03:38;99469.80;;;21.97;46.90
74466;BME280;62916;50.044;15.938;2023-05-14T00:06:09;99466.35;;;21.98;46.81
74466;BME280;62916;50.044;15.938;2023-05-14T00:08:40;99463.50;;;21.98;47.09
74466;BME280;62916;50.044;15.938;2023-05-14T00:11:11;99459.02;;;21.98;46.96
74466;BME280;62916;50.044;15.938;2023-05-14T00:13:42;99458.80;;;21.98;46.94
74466;BME280;62916;50.044;15.938;2023-05-14T00:16:13;99453.37;;;21.98;46.70
74466;BME280;62916;50.044;15.938;2023-05-14T00:18:44;99454.39;;;21.97;46.94
74466;BME280;62916;50.044;15.938;2023-05-14T00:21:15;99452.91;;;21.97;46.94
74466;BME280;62916;50.044;15.938;2023-05-14T00:23:46;99447.83;;;21.97;47.10
74466;BME280;62916;50.044;15.938;2023-05-14T00:26:16;99452.69;;;21.97;46.76
74466;BME280;62916;50.044;15.938;2023-05-14T00:28:48;99445.34;;;21.94;46.87
74466;BME280;62916;50.044;15.938;2023-05-14T00:31:19;99450.01;;;21.96;46.82
74466;BME280;62916;50.044;15.938;2023-05-14T00:33:50;99451.33;;;21.95;46.91
74466;BME280;62916;50.044;15.938;2023-05-14T00:36:20;99451.29;;;21.94;46.98
74466;BME280;62916;50.044;15.938;2023-05-14T00:38:51;99445.99;;;21.93;47.00
74466;BME280;62916;50.044;15.938;2023-05-14T00:41:22;99444.20;;;21.93;47.14
74466;BME280;62916;50.044;15.938;2023-05-14T00:43:53;99442.83;;;21.93;46.98
74466;BME280;62916;50.044;15.938;2023-05-14T00:46:24;99441.83;;;21.92;47.08
74466;BME280;62916;50.044;15.938;2023-05-14T00:48:55;99443.14;;;21.92;46.94
74466;BME280;62916;50.044;15.938;2023-05-14T00:51:26;99442.02;;;21.91;47.19
74466;BME280;62916;50.044;15.938;2023-05-14T00:53:57;99441.33;;;21.92;46.92
74466;BME280;62916;50.044;15.938;2023-05-14T00:56:28;99442.04;;;21.93;47.06
74466;BME280;62916;50.044;15.938;2023-05-14T00:58:59;99443.71;;;21.94;47.22
74466;BME280;62916;50.044;15.938;2023-05-14T01:01:30;99443.00;;;21.93;46.97
74466;BME280;62916;50.044;15.938;2023-05-14T01:04:01;99445.59;;;21.93;47.20
74466;BME280;62916;50.044;15.938;2023-05-14T01:06:37;99442.45;;;21.92;47.17
74466;BME280;62916;50.044;15.938;2023-05-14T01:09:12;99439.63;;;21.90;47.25
74466;BME280;62916;50.044;15.938;2023-05-14T01:11:49;99437.27;;;21.92;47.23
74466;BME280;62916;50.044;15.938;2023-05-14T01:14:26;99435.01;;;21.90;47.25
74466;BME280;62916;50.044;15.938;2023-05-14T01:16:59;99435.48;;;21.91;47.57
74466;BME280;62916;50.044;15.938;2023-05-14T01:19:36;99433.92;;;21.92;47.29
74466;BME280;62916;50.044;15.938;2023-05-14T01:22:07;99427.77;;;21.92;47.47
74466;BME280;62916;50.044;15.938;2023-05-14T01:24:38;99429.02;;;21.92;47.38
74466;BME280;62916;50.044;15.938;2023-05-14T01:27:12;99427.10;;;21.92;47.13
74466;BME280;62916;50.044;15.938;2023-05-14T01:29:49;99425.88;;;21.91;47.42
74466;BME280;62916;50.044;15.938;2023-05-14T01:32:23;99426.75;;;21.90;47.25
74466;BME280;62916;50.044;15.938;2023-05-14T01:34:57;99424.30;;;21.89;47.46
74466;BME280;62916;50.044;15.938;2023-05-14T01:37:30;99423.38;;;21.88;47.45
74466;BME280;62916;50.044;15.938;2023-05-14T01:40:03;99430.08;;;21.88;47.31
74466;BME280;62916;50.044;15.938;2023-05-14T01:42:34;99427.23;;;21.88;47.43
74466;BME280;62916;50.044;15.938;2023-05-14T01:45:07;99429.95;;;21.87;47.56
74466;BME280;62916;50.044;15.938;2023-05-14T01:47:38;99426.47;;;21.87;47.58
74466;BME280;62916;50.044;15.938;2023-05-14T01:50:11;99424.83;;;21.86;47.38
74466;BME280;62916;50.044;15.938;2023-05-14T01:52:42;99425.52;;;21.86;47.34
74466;BME280;62916;50.044;15.938;2023-05-14T01:55:13;99425.63;;;21.86;47.46
74466;BME280;62916;50.044;15.938;2023-05-14T01:57:44;99420.19;;;21.87;47.71
74466;BME280;62916;50.044;15.938;2023-05-14T02:00:15;99419.80;;;21.86;47.49
74466;BME280;62916;50.044;15.938;2023-05-14T02:02:46;99415.92;;;21.88;47.56
74466;BME280;62916;50.044;15.938;2023-05-14T02:05:17;99415.63;;;21.88;47.69
74466;BME280;62916;50.044;15.938;2023-05-14T02:07:48;99411.41;;;21.88;47.48
74466;BME280;62916;50.044;15.938;2023-05-14T02:10:19;99413.84;;;21.88;47.78
74466;BME280;62916;50.044;15.938;2023-05-14T02:12:50;99417.06;;;21.88;47.57
74466;BME280;62916;50.044;15.938;2023-05-14T02:15:21;99417.19;;;21.87;47.52
74466;BME280;62916;50.044;15.938;2023-05-14T02:17:52;99417.78;;;21.86;47.66
74466;BME280;62916;50.044;15.938;2023-05-14T02:20:23;99418.70;;;21.85;47.44
74466;BME280;62916;50.044;15.938;2023-05-14T02:22:54;99417.44;;;21.84;47.57
74466;BME280;62916;50.044;15.938;2023-05-14T02:25:25;99417.89;;;21.84;47.61
74466;BME280;62916;50.044;15.938;2023-05-14T02:27:56;99415.37;;;21.83;47.53
74466;BME280;62916;50.044;15.938;2023-05-14T02:30:26;99413.13;;;21.82;47.60
74466;BME280;62916;50.044;15.938;2023-05-14T02:32:58;99411.80;;;21.81;47.53
74466;BME280;62916;50.044;15.938;2023-05-14T02:35:29;99407.38;;;21.82;47.82
74466;BME280;62916;50.044;15.938;2023-05-14T02:38:00;99405.98;;;21.81;47.79
74466;BME280;62916;50.044;15.938;2023-05-14T02:40:31;99405.23;;;21.81;47.81
74466;BME280;62916;50.044;15.938;2023-05-14T02:43:01;99398.83;;;21.80;48.04
74466;BME280;62916;50.044;15.938;2023-05-14T02:45:32;99397.42;;;21.80;47.81
74466;BME280;62916;50.044;15.938;2023-05-14T02:48:03;99393.58;;;21.80;47.89
74466;BME280;62916;50.044;15.938;2023-05-14T02:50:35;99393.46;;;21.80;47.82
74466;BME280;62916;50.044;15.938;2023-05-14T02:53:05;99386.95;;;21.77;47.91
74466;BME280;62916;50.044;15.938;2023-05-14T02:55:37;99385.44;;;21.79;48.20
74466;BME280;62916;50.044;15.938;2023-05-14T02:58:08;99384.04;;;21.78;47.85
74466;BME280;62916;50.044;15.938;2023-05-14T03:00:38;99382.94;;;21.77;48.00
74466;BME280;62916;50.044;15.938;2023-05-14T03:03:09;99387.46;;;21.77;48.13
74466;BME280;62916;50.044;15.938;2023-05-14T03:05:41;99387.02;;;21.77;48.16
74466;BME280;62916;50.044;15.938;2023-05-14T03:08:11;99387.48;;;21.76;48.05
74466;BME280;62916;50.044;15.938;2023-05-14T03:10:42;99390.48;;;21.77;48.08
74466;BME280;62916;50.044;15.938;2023-05-14T03:13:14;99388.06;;;21.76;48.17
74466;BME280;62916;50.044;15.938;2023-05-14T03:15:46;99390.48;;;21.77;48.16
74466;BME280;62916;50.044;15.938;2023-05-14T03:18:17;99387.15;;;21.76;48.08
74466;BME280;62916;50.044;15.938;2023-05-14T03:20:47;99385.71;;;21.75;48.07
74466;BME280;62916;50.044;15.938;2023-05-14T03:23:18;99384.46;;;21.76;47.59
74466;BME280;62916;50.044;15.938;2023-05-14T03:25:49;99382.44;;;21.75;47.97
74466;BME280;62916;50.044;15.938;2023-05-14T03:28:21;99382.83;;;21.75;48.00
74466;BME280;62916;50.044;15.938;2023-05-14T03:30:52;99384.42;;;21.75;48.04
74466;BME280;62916;50.044;15.938;2023-05-14T03:33:23;99385.56;;;21.76;48.14
74466;BME280;62916;50.044;15.938;2023-05-14T03:35:54;99378.55;;;21.75;48.42
74466;BME280;62916;50.044;15.938;2023-05-14T03:38:24;99377.17;;;21.78;48.17
74466;BME280;62916;50.044;15.938;2023-05-14T03:40:55;99379.79;;;21.79;48.26
74466;BME280;62916;50.044;15.938;2023-05-14T03:43:26;99379.64;;;21.79;48.24
74466;BME280;62916;50.044;15.938;2023-05-14T03:45:57;99380.55;;;21.80;48.28
74466;BME280;62916;50.044;15.938;2023-05-14T03:48:28;99379.69;;;21.80;48.36
74466;BME280;62916;50.044;15.938;2023-05-14T03:50:59;99382.05;;;21.81;48.36
74466;BME280;62916;50.044;15.938;2023-05-14T03:53:30;99381.95;;;21.80;48.30
74466;BME280;62916;50.044;15.938;2023-05-14T03:56:01;99379.46;;;21.80;48.29
74466;BME280;62916;50.044;15.938;2023-05-14T03:58:32;99375.38;;;21.81;48.42
74466;BME280;62916;50.044;15.938;2023-05-14T04:01:02;99369.10;;;21.81;48.46
74466;BME280;62916;50.044;15.938;2023-05-14T04:03:33;99368.67;;;21.81;48.43
74466;BME280;62916;50.044;15.938;2023-05-14T04:06:05;99370.42;;;21.80;48.46
74466;BME280;62916;50.044;15.938;2023-05-14T04:08:36;99365.84;;;21.79;48.46
74466;BME280;62916;50.044;15.938;2023-05-14T04:11:07;99367.59;;;21.79;48.36
74466;BME280;62916;50.044;15.938;2023-05-14T04:13:38;99368.20;;;21.79;48.32
74466;BME280;62916;50.044;15.938;2023-05-14T04:16:08;99365.41;;;21.78;48.32
74466;BME280;62916;50.044;15.938;2023-05-14T04:18:39;99364.66;;;21.78;48.28
74466;BME280;62916;50.044;15.938;2023-05-14T04:21:10;99368.09;;;21.77;48.48
74466;BME280;62916;50.044;15.938;2023-05-14T04:23:41;99373.61;;;21.78;48.34
74466;BME280;62916;50.044;15.938;2023-05-14T04:26:12;99369.75;;;21.77;48.41
74466;BME280;62916;50.044;15.938;2023-05-14T04:28:42;99371.85;;;21.76;48.33
74466;BME280;62916;50.044;15.938;2023-05-14T04:31:14;99373.84;;;21.76;48.29
74466;BME280;62916;50.044;15.938;2023-05-14T04:33:44;99370.73;;;21.75;48.22
74466;BME280;62916;50.044;15.938;2023-05-14T04:36:16;99373.90;;;21.75;48.48
74466;BME280;62916;50.044;15.938;2023-05-14T04:38:47;99368.38;;;21.75;48.34
74466;BME280;62916;50.044;15.938;2023-05-14T04:41:17;99361.72;;;21.73;48.76
74466;BME280;62916;50.044;15.938;2023-05-14T04:43:50;99360.81;;;21.75;48.42
74466;BME280;62916;50.044;15.938;2023-05-14T04:46:20;99360.14;;;21.75;48.35
74466;BME280;62916;50.044;15.938;2023-05-14T04:48:51;99363.92;;;21.74;48.33
74466;BME280;62916;50.044;15.938;2023-05-14T04:51:22;99360.34;;;21.74;48.40
74466;BME280;62916;50.044;15.938;2023-05-14T04:53:53;99361.86;;;21.74;48.46
74466;BME280;62916;50.044;15.938;2023-05-14T04:56:23;99361.23;;;21.74;48.55
74466;BME280;62916;50.044;15.938;2023-05-14T04:58:54;99360.73;;;21.74;48.47
74466;BME280;62916;50.044;15.938;2023-05-14T05:01:25;99361.70;;;21.74;48.55
74466;BME280;62916;50.044;15.938;2023-05-14T05:03:56;99364.12;;;21.74;48.58
74466;BME280;62916;50.044;15.938;2023-05-14T05:06:27;99363.36;;;21.75;48.50
74466;BME280;62916;50.044;15.938;2023-05-14T05:08:57;99362.70;;;21.74;48.60
74466;BME280;62916;50.044;15.938;2023-05-14T05:11:30;99364.89;;;21.75;48.69
74466;BME280;62916;50.044;15.938;2023-05-14T05:14:01;99359.77;;;21.74;48.59
74466;BME280;62916;50.044;15.938;2023-05-14T05:16:31;99359.60;;;21.74;48.56
74466;BME280;62916;50.044;15.938;2023-05-14T05:19:03;99356.58;;;21.73;48.45
74466;BME280;62916;50.044;15.938;2023-05-14T05:21:34;99354.25;;;21.73;48.62
74466;BME280;62916;50.044;15.938;2023-05-14T05:24:06;99352.45;;;21.73;48.63
74466;BME280;62916;50.044;15.938;2023-05-14T05:26:37;99351.34;;;21.72;48.52
74466;BME280;62916;50.044;15.938;2023-05-14T05:29:08;99348.38;;;21.71;48.66
74466;BME280;62916;50.044;15.938;2023-05-14T05:31:39;99349.17;;;21.71;48.59
74466;BME280;62916;50.044;15.938;2023-05-14T05:34:09;99354.59;;;21.71;48.84
74466;BME280;62916;50.044;15.938;2023-05-14T05:36:40;99355.95;;;21.70;48.92
74466;BME280;62916;50.044;15.938;2023-05-14T05:39:11;99353.77;;;21.70;48.66
74466;BME280;62916;50.044;15.938;2023-05-14T05:41:42;99347.70;;;21.66;48.73
74466;BME280;62916;50.044;15.938;2023-05-14T05:44:13;99352.72;;;21.69;48.89
74466;BME280;62916;50.044;15.938;2023-05-14T05:46:44;99347.54;;;21.68;48.72
74466;BME280;62916;50.044;15.938;2023-05-14T05:49:15;99349.70;;;21.68;48.54
74466;BME280;62916;50.044;15.938;2023-05-14T05:51:45;99349.47;;;21.68;48.73
74466;BME280;62916;50.044;15.938;2023-05-14T05:54:16;99346.38;;;21.68;48.68
74466;BME280;62916;50.044;15.938;2023-05-14T05:56:47;99347.90;;;21.67;48.68
74466;BME280;62916;50.044;15.938;2023-05-14T05:59:18;99344.21;;;21.68;48.69
74466;BME280;62916;50.044;15.938;2023-05-14T06:01:48;99348.83;;;21.68;48.55
74466;BME280;62916;50.044;15.938;2023-05-14T06:04:19;99351.48;;;21.68;48.72
74466;BME280;62916;50.044;15.938;2023-05-14T06:06:50;99352.09;;;21.68;48.67
74466;BME280;62916;50.044;15.938;2023-05-14T06:09:21;99347.80;;;21.67;48.82
74466;BME280;62916;50.044;15.938;2023-05-14T06:11:52;99350.20;;;21.66;48.71
74466;BME280;62916;50.044;15.938;2023-05-14T06:14:23;99348.34;;;21.66;48.76
74466;BME280;62916;50.044;15.938;2023-05-14T06:16:53;99349.03;;;21.66;48.80
74466;BME280;62916;50.044;15.938;2023-05-14T06:19:25;99347.34;;;21.66;48.81
74466;BME280;62916;50.044;15.938;2023-05-14T06:21:55;99351.35;;;21.65;48.84
74466;BME280;62916;50.044;15.938;2023-05-14T06:24:36;99348.70;;;21.65;48.84
74466;BME280;62916;50.044;15.938;2023-05-14T06:27:08;99346.27;;;21.65;48.66
74466;BME280;62916;50.044;15.938;2023-05-14T06:29:39;99341.83;;;21.65;48.77
74466;BME280;62916;50.044;15.938;2023-05-14T06:32:10;99348.59;;;21.65;48.87
74466;BME280;62916;50.044;15.938;2023-05-14T06:34:44;99351.79;;;21.66;48.77
74466;BME280;62916;50.044;15.938;2023-05-14T06:37:15;99344.62;;;21.66;48.81
74466;BME280;62916;50.044;15.938;2023-05-14T06:39:45;99347.09;;;21.67;48.69
74466;BME280;62916;50.044;15.938;2023-05-14T06:42:19;99345.23;;;21.67;48.67
74466;BME280;62916;50.044;15.938;2023-05-14T06:44:50;99344.26;;;21.67;48.79
74466;BME280;62916;50.044;15.938;2023-05-14T06:47:20;99339.97;;;21.67;48.66
74466;BME280;62916;50.044;15.938;2023-05-14T06:49:51;99345.84;;;21.62;47.32
74466;BME280;62916;50.044;15.938;2023-05-14T06:52:24;99342.27;;;21.60;47.64
74466;BME280;62916;50.044;15.938;2023-05-14T06:54:55;99336.86;;;21.60;47.85
74466;BME280;62916;50.044;15.938;2023-05-14T06:57:26;99336.70;;;21.62;47.80
74466;BME280;62916;50.044;15.938;2023-05-14T06:59:57;99334.19;;;21.63;47.57
74466;BME280;62916;50.044;15.938;2023-05-14T07:02:31;99325.83;;;21.63;47.69
74466;BME280;62916;50.044;15.938;2023-05-14T07:05:03;99325.70;;;21.64;47.69
74466;BME280;62916;50.044;15.938;2023-05-14T07:07:33;99318.40;;;21.64;47.52
74466;BME280;62916;50.044;15.938;2023-05-14T07:10:06;99319.41;;;21.65;47.62
74466;BME280;62916;50.044;15.938;2023-05-14T07:12:37;99317.31;;;21.65;47.43
74466;BME280;62916;50.044;15.938;2023-05-14T07:15:10;99316.81;;;21.65;47.38
74466;BME280;62916;50.044;15.938;2023-05-14T07:17:41;99312.77;;;21.64;47.35
74466;BME280;62916;50.044;15.938;2023-05-14T07:20:15;99313.70;;;21.65;47.39
74466;BME280;62916;50.044;15.938;2023-05-14T07:22:46;99311.77;;;21.65;47.40
74466;BME280;62916;50.044;15.938;2023-05-14T07:25:17;99310.58;;;21.66;47.35
74466;BME280;62916;50.044;15.938;2023-05-14T07:27:48;99308.78;;;21.65;47.23
74466;BME280;62916;50.044;15.938;2023-05-14T07:30:19;99306.92;;;21.65;47.18
74466;BME280;62916;50.044;15.938;2023-05-14T07:32:50;99301.73;;;21.65;47.24
74466;BME280;62916;50.044;15.938;2023-05-14T07:35:22;99304.83;;;21.66;47.21
74466;BME280;62916;50.044;15.938;2023-05-14T07:37:53;99304.83;;;21.66;47.41
74466;BME280;62916;50.044;15.938;2023-05-14T07:40:24;99298.05;;;21.65;47.39
74466;BME280;62916;50.044;15.938;2023-05-14T07:42:55;99290.96;;;21.63;47.48
74466;BME280;62916;50.044;15.938;2023-05-14T07:45:26;99298.05;;;21.65;47.54
74466;BME280;62916;50.044;15.938;2023-05-14T07:47:57;99299.73;;;21.67;47.30
74466;BME280;62916;50.044;15.938;2023-05-14T07:50:29;99301.12;;;21.67;47.39
74466;BME280;62916;50.044;15.938;2023-05-14T07:53:00;99294.51;;;21.67;47.57
74466;BME280;62916;50.044;15.938;2023-05-14T07:55:31;99289.74;;;21.67;47.65
74466;BME280;62916;50.044;15.938;2023-05-14T07:58:02;99289.95;;;21.68;47.82
74466;BME280;62916;50.044;15.938;2023-05-14T08:00:33;99287.96;;;21.69;47.69
74466;BME280;62916;50.044;15.938;2023-05-14T08:03:04;99288.42;;;21.68;47.74
74466;BME280;62916;50.044;15.938;2023-05-14T08:05:35;99284.96;;;21.69;47.83
74466;BME280;62916;50.044;15.938;2023-05-14T08:08:08;99281.35;;;21.69;47.69
74466;BME280;62916;50.044;15.938;2023-05-14T08:10:38;99279.98;;;21.69;47.72
74466;BME280;62916;50.044;15.938;2023-05-14T08:13:09;99278.56;;;21.70;47.75
74466;BME280;62916;50.044;15.938;2023-05-14T08:15:41;99276.46;;;21.70;47.73
74466;BME280;62916;50.044;15.938;2023-05-14T08:18:11;99267.77;;;21.70;47.97
74466;BME280;62916;50.044;15.938;2023-05-14T08:20:43;99258.73;;;21.70;47.88
74466;BME280;62916;50.044;15.938;2023-05-14T08:23:13;99253.77;;;21.71;48.00
74466;BME280;62916;50.044;15.938;2023-05-14T08:25:44;99249.08;;;21.70;48.11
74466;BME280;62916;50.044;15.938;2023-05-14T08:28:15;99242.30;;;21.70;48.01
74466;BME280;62916;50.044;15.938;2023-05-14T08:30:46;99246.55;;;21.72;48.14
74466;BME280;62916;50.044;15.938;2023-05-14T08:33:17;99243.10;;;21.72;48.04
74466;BME280;62916;50.044;15.938;2023-05-14T08:35:48;99240.35;;;21.72;47.96
74466;BME280;62916;50.044;15.938;2023-05-14T08:38:19;99234.70;;;21.72;48.00
74466;BME280;62916;50.044;15.938;2023-05-14T08:40:55;99231.26;;;21.72;48.06
74466;BME280;62916;50.044;15.938;2023-05-14T08:43:29;99228.03;;;21.72;48.11
74466;BME280;62916;50.044;15.938;2023-05-14T08:46:01;99224.95;;;21.73;48.17
74466;BME280;62916;50.044;15.938;2023-05-14T08:48:35;99221.56;;;21.73;48.18
74466;BME280;62916;50.044;15.938;2023-05-14T08:51:07;99222.50;;;21.74;48.16
74466;BME280;62916;50.044;15.938;2023-05-14T08:53:38;99214.36;;;21.74;48.26
74466;BME280;62916;50.044;15.938;2023-05-14T08:56:10;99215.00;;;21.74;48.07
74466;BME280;62916;50.044;15.938;2023-05-14T08:58:42;99215.36;;;21.75;48.34
74466;BME280;62916;50.044;15.938;2023-05-14T09:01:13;99212.80;;;21.74;48.17
74466;BME280;62916;50.044;15.938;2023-05-14T09:03:44;99214.64;;;21.75;48.37
74466;BME280;62916;50.044;15.938;2023-05-14T09:06:16;99208.48;;;21.75;48.36
74466;BME280;62916;50.044;15.938;2023-05-14T09:08:48;99209.00;;;21.77;48.33
74466;BME280;62916;50.044;15.938;2023-05-14T09:11:19;99202.33;;;21.77;48.23
74466;BME280;62916;50.044;15.938;2023-05-14T09:13:49;99205.38;;;21.79;48.50
74466;BME280;62916;50.044;15.938;2023-05-14T09:16:20;99196.93;;;21.79;48.46
74466;BME280;62916;50.044;15.938;2023-05-14T09:18:52;99195.58;;;21.81;48.25
74466;BME280;62916;50.044;15.938;2023-05-14T09:21:24;99200.74;;;21.82;48.22
74466;BME280;62916;50.044;15.938;2023-05-14T09:23:57;99196.77;;;21.84;48.30
74466;BME280;62916;50.044;15.938;2023-05-14T09:26:30;99193.27;;;21.83;48.42
74466;BME280;62916;50.044;15.938;2023-05-14T09:29:01;99192.91;;;21.84;48.27
74466;BME280;62916;50.044;15.938;2023-05-14T09:31:33;99192.69;;;21.84;48.41
74466;BME280;62916;50.044;15.938;2023-05-14T09:34:05;99189.33;;;21.85;48.31
74466;BME280;62916;50.044;15.938;2023-05-14T09:36:36;99189.95;;;21.84;48.27
74466;BME280;62916;50.044;15.938;2023-05-14T09:39:07;99188.20;;;21.85;48.30
74466;BME280;62916;50.044;15.938;2023-05-14T09:41:38;99190.05;;;21.85;48.48
74466;BME280;62916;50.044;15.938;2023-05-14T09:44:09;99184.39;;;21.86;48.47
74466;BME280;62916;50.044;15.938;2023-05-14T09:46:40;99183.35;;;21.86;48.42
74466;BME280;62916;50.044;15.938;2023-05-14T09:49:11;99175.89;;;21.87;48.49
74466;BME280;62916;50.044;15.938;2023-05-14T09:51:43;99175.58;;;21.86;48.31
74466;BME280;62916;50.044;15.938;2023-05-14T09:54:14;99170.30;;;21.87;48.23
74466;BME280;62916;50.044;15.938;2023-05-14T09:56:46;99161.90;;;21.86;48.34
74466;BME280;62916;50.044;15.938;2023-05-14T09:59:17;99162.43;;;21.85;48.27
74466;BME280;62916;50.044;15.938;2023-05-14T10:01:49;99163.59;;;21.86;48.23
74466;BME280;62916;50.044;15.938;2023-05-14T10:04:21;99160.57;;;21.85;48.20
74466;BME280;62916;50.044;15.938;2023-05-14T10:06:53;99154.35;;;21.85;48.31
74466;BME280;62916;50.044;15.938;2023-05-14T10:09:28;99152.77;;;21.86;48.43
74466;BME280;62916;50.044;15.938;2023-05-14T10:11:58;99151.30;;;21.86;48.21
74466;BME280;62916;50.044;15.938;2023-05-14T10:14:35;99150.33;;;21.84;47.91
74466;BME280;62916;50.044;15.938;2023-05-14T10:17:09;99147.83;;;21.82;47.24
74466;BME280;62916;50.044;15.938;2023-05-14T10:19:49;99148.69;;;21.82;47.63
74466;BME280;62916;50.044;15.938;2023-05-14T10:22:23;99149.99;;;21.84;47.83
74466;BME280;62916;50.044;15.938;2023-05-14T10:24:57;99148.30;;;21.86;47.66
74466;BME280;62916;50.044;15.938;2023-05-14T10:27:29;99151.73;;;21.86;47.96
74466;BME280;62916;50.044;15.938;2023-05-14T10:30:01;99150.04;;;21.88;47.89
74466;BME280;62916;50.044;15.938;2023-05-14T10:32:35;99152.35;;;21.89;47.87
74466;BME280;62916;50.044;15.938;2023-05-14T10:35:17;99145.35;;;21.91;47.88
74466;BME280;62916;50.044;15.938;2023-05-14T10:37:51;99145.95;;;21.92;47.88
74466;BME280;62916;50.044;15.938;2023-05-14T10:40:23;99149.91;;;21.92;48.06
74466;BME280;62916;50.044;15.938;2023-05-14T10:42:56;99142.79;;;21.92;47.89
74466;BME280;62916;50.044;15.938;2023-05-14T10:45:28;99139.80;;;21.91;47.91
74466;BME280;62916;50.044;15.938;2023-05-14T10:48:02;99141.83;;;21.92;47.87
74466;BME280;62916;50.044;15.938;2023-05-14T10:50:33;99136.32;;;21.93;48.11
74466;BME280;62916;50.044;15.938;2023-05-14T10:53:04;99144.93;;;21.94;47.73
74466;BME280;62916;50.044;15.938;2023-05-14T10:55:40;99140.31;;;21.94;47.90
74466;BME280;62916;50.044;15.938;2023-05-14T10:58:12;99132.88;;;21.93;47.98
74466;BME280;62916;50.044;15.938;2023-05-14T11:00:47;99131.77;;;21.94;47.95
74466;BME280;62916;50.044;15.938;2023-05-14T11:03:20;99129.71;;;21.93;47.94
74466;BME280;62916;50.044;15.938;2023-05-14T11:05:51;99130.85;;;21.93;48.04
74466;BME280;62916;50.044;15.938;2023-05-14T11:08:26;99122.96;;;21.92;48.10
74466;BME280;62916;50.044;15.938;2023-05-14T11:10:58;99120.55;;;21.93;48.05
74466;BME280;62916;50.044;15.938;2023-05-14T11:13:30;99115.36;;;21.95;48.10
74466;BME280;62916;50.044;15.938;2023-05-14T11:16:03;99119.96;;;21.96;48.16
74466;BME280;62916;50.044;15.938;2023-05-14T11:19:01;99116.08;;;21.96;48.08
74466;BME280;62916;50.044;15.938;2023-05-14T11:21:33;99117.14;;;21.96;48.01
74466;BME280;62916;50.044;15.938;2023-05-14T11:24:05;99117.48;;;21.95;48.03
74466;BME280;62916;50.044;15.938;2023-05-14T11:26:36;99113.18;;;21.96;48.06
74466;BME280;62916;50.044;15.938;2023-05-14T11:29:08;99110.90;;;21.97;48.12
74466;BME280;62916;50.044;15.938;2023-05-14T11:31:40;99111.90;;;22.00;48.15
74466;BME280;62916;50.044;15.938;2023-05-14T11:34:12;99116.45;;;22.00;47.96
74466;BME280;62916;50.044;15.938;2023-05-14T11:36:43;99117.16;;;22.02;48.01
74466;BME280;62916;50.044;15.938;2023-05-14T11:39:19;99118.06;;;22.04;47.97
74466;BME280;62916;50.044;15.938;2023-05-14T11:41:50;99114.92;;;22.06;48.07
74466;BME280;62916;50.044;15.938;2023-05-14T11:44:21;99116.65;;;22.08;47.97
74466;BME280;62916;50.044;15.938;2023-05-14T11:46:56;99111.94;;;22.09;48.13
74466;BME280;62916;50.044;15.938;2023-05-14T11:49:28;99116.48;;;22.09;48.00
74466;BME280;62916;50.044;15.938;2023-05-14T11:52:00;99117.77;;;22.10;47.92
74466;BME280;62916;50.044;15.938;2023-05-14T11:54:32;99116.27;;;22.10;47.65
74466;BME280;62916;50.044;15.938;2023-05-14T11:57:09;99116.01;;;22.10;47.98
74466;BME280;62916;50.044;15.938;2023-05-14T11:59:41;99114.69;;;22.09;47.85
74466;BME280;62916;50.044;15.938;2023-05-14T12:02:12;99113.71;;;22.09;47.83
74466;BME280;62916;50.044;15.938;2023-05-14T12:04:48;99111.85;;;22.09;47.85
74466;BME280;62916;50.044;15.938;2023-05-14T12:07:19;99109.58;;;22.08;47.70
74466;BME280;62916;50.044;15.938;2023-05-14T12:09:51;99109.30;;;22.08;47.67
74466;BME280;62916;50.044;15.938;2023-05-14T12:12:22;99113.27;;;22.08;47.73
74466;BME280;62916;50.044;15.938;2023-05-14T12:14:53;99112.06;;;22.08;47.82
74466;BME280;62916;50.044;15.938;2023-05-14T12:17:24;99110.70;;;22.08;47.63
74466;BME280;62916;50.044;15.938;2023-05-14T12:19:57;99109.81;;;22.08;47.67
74466;BME280;62916;50.044;15.938;2023-05-14T12:22:30;99107.63;;;22.07;47.49
74466;BME280;62916;50.044;15.938;2023-05-14T12:25:02;99112.23;;;22.08;46.69
74466;BME280;62916;50.044;15.938;2023-05-14T12:27:37;99108.14;;;22.07;46.39
74466;BME280;62916;50.044;15.938;2023-05-14T12:30:10;99110.41;;;22.07;46.68
74466;BME280;62916;50.044;15.938;2023-05-14T12:32:50;99110.64;;;22.07;46.79
74466;BME280;62916;50.044;15.938;2023-05-14T12:35:22;99104.95;;;22.06;46.70
74466;BME280;62916;50.044;15.938;2023-05-14T12:37:54;99107.31;;;22.07;46.74
74466;BME280;62916;50.044;15.938;2023-05-14T12:40:24;99102.09;;;22.07;46.90
74466;BME280;62916;50.044;15.938;2023-05-14T12:42:55;99106.19;;;22.07;46.88
74466;BME280;62916;50.044;15.938;2023-05-14T12:45:26;99099.50;;;22.07;47.08
74466;BME280;62916;50.044;15.938;2023-05-14T12:47:57;99097.08;;;22.07;46.90
74466;BME280;62916;50.044;15.938;2023-05-14T12:50:28;99099.13;;;22.08;46.86
74466;BME280;62916;50.044;15.938;2023-05-14T12:52:59;99101.86;;;22.07;47.22
74466;BME280;62916;50.044;15.938;2023-05-14T12:55:30;99100.64;;;22.07;46.98
74466;BME280;62916;50.044;15.938;2023-05-14T12:58:02;99097.64;;;22.07;47.04
74466;BME280;62916;50.044;15.938;2023-05-14T13:00:33;99096.18;;;22.07;47.23
74466;BME280;62916;50.044;15.938;2023-05-14T13:03:04;99100.49;;;22.06;47.01
74466;BME280;62916;50.044;15.938;2023-05-14T13:05:35;99099.06;;;22.04;47.24
74466;BME280;62916;50.044;15.938;2023-05-14T13:08:08;99096.34;;;22.05;47.10
74466;BME280;62916;50.044;15.938;2023-05-14T13:10:39;99094.24;;;22.05;47.25
74466;BME280;62916;50.044;15.938;2023-05-14T13:13:10;99093.58;;;22.05;47.18